sensor_id;sensor_type;location;lat;lon;timestamp;temperature;humidity
584;HTU21D;27024;54.068;12.116;2022-12-16T00:00:05;-1.93;113.96
584;HTU21D;27024;54.068;12.116;2022-12-16T00:02:34;-1.90;114.06
584;HTU21D;27024;54.068;12.116;2022-12-16T00:05:01;-1.91;114.17
584;HTU21D;27024;54.068;12.116;2022-12-16T00:07:28;-1.88;114.45
584;HTU21D;27024;54.068;12.116;2022-12-16T00:09:55;-1.89;114.36
584;HTU21D;27024;54.068;12.116;2022-12-16T00:12:21;-1.85;114.33
584;HTU21D;27024;54.068;12.116;2022-12-16T00:14:48;-1.79;114.16
584;HTU21D;27024;54.068;12.116;2022-12-16T00:17:15;-1.83;114.32
584;HTU21D;27024;54.068;12.116;2022-12-16T00:19:42;-1.74;114.10
584;HTU21D;27024;54.068;12.116;2022-12-16T00:22:09;-1.78;114.06
584;HTU21D;27024;54.068;12.116;2022-12-16T00:24:36;-1.69;114.06
584;HTU21D;27024;54.068;12.116;2022-12-16T00:27:03;-1.69;113.82
584;HTU21D;27024;54.068;12.116;2022-12-16T00:29:29;-1.70;113.75
584;HTU21D;27024;54.068;12.116;2022-12-16T00:31:56;-1.67;113.75
584;HTU21D;27024;54.068;12.116;2022-12-16T00:34:23;-1.70;113.57
584;HTU21D;27024;54.068;12.116;2022-12-16T00:36:49;-1.70;113.43
584;HTU21D;27024;54.068;12.116;2022-12-16T00:39:17;-1.70;113.23
584;HTU21D;27024;54.068;12.116;2022-12-16T00:41:44;-1.73;112.90
584;HTU21D;27024;54.068;12.116;2022-12-16T00:44:13;-1.79;112.77
584;HTU21D;27024;54.068;12.116;2022-12-16T00:46:39;-1.91;112.65
584;HTU21D;27024;54.068;12.116;2022-12-16T00:49:06;-1.97;112.76
584;HTU21D;27024;54.068;12.116;2022-12-16T00:51:33;-2.03;113.03
584;HTU21D;27024;54.068;12.116;2022-12-16T00:53:59;-1.91;113.05
584;HTU21D;27024;54.068;12.116;2022-12-16T00:56:26;-2.02;112.91
584;HTU21D;27024;54.068;12.116;2022-12-16T00:58:53;-2.02;113.22
584;HTU21D;27024;54.068;12.116;2022-12-16T01:01:20;-2.08;113.32
584;HTU21D;27024;54.068;12.116;2022-12-16T01:03:47;-1.93;113.83
584;HTU21D;27024;54.068;12.116;2022-12-16T01:06:16;-1.88;113.51
584;HTU21D;27024;54.068;12.116;2022-12-16T01:08:43;-1.80;113.16
584;HTU21D;27024;54.068;12.116;2022-12-16T01:11:18;-1.86;113.03
584;HTU21D;27024;54.068;12.116;2022-12-16T01:13:48;-1.92;113.31
584;HTU21D;27024;54.068;12.116;2022-12-16T01:16:17;-1.92;113.34
584;HTU21D;27024;54.068;12.116;2022-12-16T01:18:44;-1.86;113.51
584;HTU21D;27024;54.068;12.116;2022-12-16T01:21:13;-1.82;113.13
584;HTU21D;27024;54.068;12.116;2022-12-16T01:23:40;-1.79;113.22
584;HTU21D;27024;54.068;12.116;2022-12-16T01:26:06;-1.72;112.90
584;HTU21D;27024;54.068;12.116;2022-12-16T01:28:33;-1.77;113.22
584;HTU21D;27024;54.068;12.116;2022-12-16T01:31:00;-1.70;113.07
584;HTU21D;27024;54.068;12.116;2022-12-16T01:33:28;-1.70;112.84
584;HTU21D;27024;54.068;12.116;2022-12-16T01:36:04;-1.72;113.09
584;HTU21D;27024;54.068;12.116;2022-12-16T01:38:32;-1.74;113.20
584;HTU21D;27024;54.068;12.116;2022-12-16T01:40:58;-1.71;113.45
584;HTU21D;27024;54.068;12.116;2022-12-16T01:43:36;-1.69;113.36
584;HTU21D;27024;54.068;12.116;2022-12-16T01:46:19;-1.65;113.29
584;HTU21D;27024;54.068;12.116;2022-12-16T01:51:31;-1.59;112.82
584;HTU21D;27024;54.068;12.116;2022-12-16T01:56:32;-1.67;113.01
584;HTU21D;27024;54.068;12.116;2022-12-16T01:59:01;-1.60;112.98
584;HTU21D;27024;54.068;12.116;2022-12-16T02:01:28;-1.60;112.96
584;HTU21D;27024;54.068;12.116;2022-12-16T02:03:57;-1.59;113.03
584;HTU21D;27024;54.068;12.116;2022-12-16T02:06:28;-1.67;112.96
584;HTU21D;27024;54.068;12.116;2022-12-16T02:08:57;-1.70;113.51
584;HTU21D;27024;54.068;12.116;2022-12-16T02:15:18;-1.55;112.86
584;HTU21D;27024;54.068;12.116;2022-12-16T02:17:56;-1.56;112.80
584;HTU21D;27024;54.068;12.116;2022-12-16T02:23:34;-1.67;113.18
584;HTU21D;27024;54.068;12.116;2022-12-16T02:28:58;-1.59;112.84
584;HTU21D;27024;54.068;12.116;2022-12-16T02:31:50;-1.65;112.90
584;HTU21D;27024;54.068;12.116;2022-12-16T02:34:31;-1.69;113.10
584;HTU21D;27024;54.068;12.116;2022-12-16T02:39:48;-1.57;113.03
584;HTU21D;27024;54.068;12.116;2022-12-16T02:44:59;-1.55;113.10
584;HTU21D;27024;54.068;12.116;2022-12-16T02:47:27;-1.57;113.14
584;HTU21D;27024;54.068;12.116;2022-12-16T02:49:55;-1.53;113.00
584;HTU21D;27024;54.068;12.116;2022-12-16T02:52:28;-1.55;112.90
584;HTU21D;27024;54.068;12.116;2022-12-16T02:54:58;-1.57;112.77
584;HTU21D;27024;54.068;12.116;2022-12-16T03:00:10;-1.55;112.97
584;HTU21D;27024;54.068;12.116;2022-12-16T03:02:46;-1.47;112.41
584;HTU21D;27024;54.068;12.116;2022-12-16T03:05:25;-1.61;112.43
584;HTU21D;27024;54.068;12.116;2022-12-16T03:07:57;-1.57;112.36
584;HTU21D;27024;54.068;12.116;2022-12-16T03:10:29;-1.55;112.27
584;HTU21D;27024;54.068;12.116;2022-12-16T03:12:59;-1.59;112.48
584;HTU21D;27024;54.068;12.116;2022-12-16T03:15:29;-1.53;112.39
584;HTU21D;27024;54.068;12.116;2022-12-16T03:18:00;-1.56;112.14
584;HTU21D;27024;54.068;12.116;2022-12-16T03:20:33;-1.63;112.72
584;HTU21D;27024;54.068;12.116;2022-12-16T03:23:06;-1.67;112.58
584;HTU21D;27024;54.068;12.116;2022-12-16T03:25:36;-1.62;112.68
584;HTU21D;27024;54.068;12.116;2022-12-16T03:28:26;-1.53;112.16
584;HTU21D;27024;54.068;12.116;2022-12-16T03:31:07;-1.48;111.88
584;HTU21D;27024;54.068;12.116;2022-12-16T03:33:51;-1.47;111.92
584;HTU21D;27024;54.068;12.116;2022-12-16T03:36:23;-1.49;112.01
584;HTU21D;27024;54.068;12.116;2022-12-16T03:38:52;-1.49;111.69
584;HTU21D;27024;54.068;12.116;2022-12-16T03:41:22;-1.60;111.96
584;HTU21D;27024;54.068;12.116;2022-12-16T03:43:50;-1.57;112.22
584;HTU21D;27024;54.068;12.116;2022-12-16T03:46:17;-1.49;111.78
584;HTU21D;27024;54.068;12.116;2022-12-16T03:48:46;-1.49;111.65
584;HTU21D;27024;54.068;12.116;2022-12-16T03:51:12;-1.67;111.83
584;HTU21D;27024;54.068;12.116;2022-12-16T03:53:39;-1.57;111.97
584;HTU21D;27024;54.068;12.116;2022-12-16T03:56:06;-1.53;111.72
584;HTU21D;27024;54.068;12.116;2022-12-16T03:58:33;-1.54;111.78
584;HTU21D;27024;54.068;12.116;2022-12-16T04:01:00;-1.49;111.64
584;HTU21D;27024;54.068;12.116;2022-12-16T04:03:27;-1.49;111.61
584;HTU21D;27024;54.068;12.116;2022-12-16T04:05:54;-1.58;111.79
584;HTU21D;27024;54.068;12.116;2022-12-16T04:08:21;-1.61;112.16
584;HTU21D;27024;54.068;12.116;2022-12-16T04:10:51;-1.60;111.94
584;HTU21D;27024;54.068;12.116;2022-12-16T04:13:37;-1.60;112.10
584;HTU21D;27024;54.068;12.116;2022-12-16T04:16:25;-1.57;112.41
584;HTU21D;27024;54.068;12.116;2022-12-16T04:19:21;-1.63;112.49
584;HTU21D;27024;54.068;12.116;2022-12-16T04:22:13;-1.63;112.72
584;HTU21D;27024;54.068;12.116;2022-12-16T04:25:09;-1.63;112.76
584;HTU21D;27024;54.068;12.116;2022-12-16T04:27:38;-1.57;112.60
584;HTU21D;27024;54.068;12.116;2022-12-16T04:30:05;-1.57;112.51
584;HTU21D;27024;54.068;12.116;2022-12-16T04:32:56;-1.54;112.21
584;HTU21D;27024;54.068;12.116;2022-12-16T04:35:43;-1.50;112.00
584;HTU21D;27024;54.068;12.116;2022-12-16T04:38:29;-1.55;111.97
584;HTU21D;27024;54.068;12.116;2022-12-16T04:41:14;-1.76;112.97
584;HTU21D;27024;54.068;12.116;2022-12-16T04:44:00;-1.61;112.91
584;HTU21D;27024;54.068;12.116;2022-12-16T04:46:46;-1.71;113.01
584;HTU21D;27024;54.068;12.116;2022-12-16T04:49:32;-1.54;112.53
584;HTU21D;27024;54.068;12.116;2022-12-16T04:52:17;-1.50;112.28
584;HTU21D;27024;54.068;12.116;2022-12-16T04:55:03;-1.52;111.97
584;HTU21D;27024;54.068;12.116;2022-12-16T04:57:53;-1.49;112.16
584;HTU21D;27024;54.068;12.116;2022-12-16T05:00:40;-1.59;112.03
584;HTU21D;27024;54.068;12.116;2022-12-16T05:03:26;-1.55;112.19
584;HTU21D;27024;54.068;12.116;2022-12-16T05:06:13;-1.43;111.92
584;HTU21D;27024;54.068;12.116;2022-12-16T05:08:58;-1.42;111.94
584;HTU21D;27024;54.068;12.116;2022-12-16T05:11:43;-1.43;111.49
584;HTU21D;27024;54.068;12.116;2022-12-16T05:14:29;-1.52;112.16
584;HTU21D;27024;54.068;12.116;2022-12-16T05:17:14;-1.57;111.90
584;HTU21D;27024;54.068;12.116;2022-12-16T05:19:59;-1.52;112.09
584;HTU21D;27024;54.068;12.116;2022-12-16T05:22:45;-1.41;111.67
584;HTU21D;27024;54.068;12.116;2022-12-16T05:25:30;-1.38;111.77
584;HTU21D;27024;54.068;12.116;2022-12-16T05:28:16;-1.38;111.85
584;HTU21D;27024;54.068;12.116;2022-12-16T05:31:01;-1.40;111.92
584;HTU21D;27024;54.068;12.116;2022-12-16T05:33:47;-1.46;111.89
584;HTU21D;27024;54.068;12.116;2022-12-16T05:36:32;-1.48;112.21
584;HTU21D;27024;54.068;12.116;2022-12-16T05:39:18;-1.36;111.81
584;HTU21D;27024;54.068;12.116;2022-12-16T05:42:03;-1.41;111.50
584;HTU21D;27024;54.068;12.116;2022-12-16T05:44:48;-1.39;111.68
584;HTU21D;27024;54.068;12.116;2022-12-16T05:47:34;-1.34;111.50
584;HTU21D;27024;54.068;12.116;2022-12-16T05:50:19;-1.33;111.29
584;HTU21D;27024;54.068;12.116;2022-12-16T05:53:04;-1.45;111.77
584;HTU21D;27024;54.068;12.116;2022-12-16T05:55:49;-1.38;111.65
584;HTU21D;27024;54.068;12.116;2022-12-16T05:58:35;-1.41;111.68
584;HTU21D;27024;54.068;12.116;2022-12-16T06:01:21;-1.34;111.64
584;HTU21D;27024;54.068;12.116;2022-12-16T06:04:06;-1.39;111.14
584;HTU21D;27024;54.068;12.116;2022-12-16T06:06:52;-1.40;111.47
584;HTU21D;27024;54.068;12.116;2022-12-16T06:09:37;-1.33;111.41
584;HTU21D;27024;54.068;12.116;2022-12-16T06:12:22;-1.34;111.07
584;HTU21D;27024;54.068;12.116;2022-12-16T06:15:08;-1.38;111.07
584;HTU21D;27024;54.068;12.116;2022-12-16T06:17:53;-1.36;111.14
584;HTU21D;27024;54.068;12.116;2022-12-16T06:20:39;-1.28;111.12
584;HTU21D;27024;54.068;12.116;2022-12-16T06:23:24;-1.18;110.76
584;HTU21D;27024;54.068;12.116;2022-12-16T06:26:09;-1.23;110.86
584;HTU21D;27024;54.068;12.116;2022-12-16T06:28:54;-1.19;110.54
584;HTU21D;27024;54.068;12.116;2022-12-16T06:31:40;-1.16;110.36
584;HTU21D;27024;54.068;12.116;2022-12-16T06:34:25;-1.15;110.52
584;HTU21D;27024;54.068;12.116;2022-12-16T06:37:11;-1.16;110.89
584;HTU21D;27024;54.068;12.116;2022-12-16T06:39:56;-1.09;110.39
584;HTU21D;27024;54.068;12.116;2022-12-16T06:42:41;-1.16;110.71
584;HTU21D;27024;54.068;12.116;2022-12-16T06:45:27;-1.18;110.81
584;HTU21D;27024;54.068;12.116;2022-12-16T06:48:12;-1.14;110.78
584;HTU21D;27024;54.068;12.116;2022-12-16T06:50:57;-1.10;110.39
584;HTU21D;27024;54.068;12.116;2022-12-16T06:53:43;-1.18;110.10
584;HTU21D;27024;54.068;12.116;2022-12-16T06:56:29;-1.19;110.08
584;HTU21D;27024;54.068;12.116;2022-12-16T06:59:14;-1.20;109.91
584;HTU21D;27024;54.068;12.116;2022-12-16T07:01:59;-1.20;109.81
584;HTU21D;27024;54.068;12.116;2022-12-16T07:04:45;-0.67;113.25
584;HTU21D;27024;54.068;12.116;2022-12-16T07:07:30;-1.12;110.90
584;HTU21D;27024;54.068;12.116;2022-12-16T07:10:16;-1.25;110.73
584;HTU21D;27024;54.068;12.116;2022-12-16T07:13:01;-1.35;110.59
584;HTU21D;27024;54.068;12.116;2022-12-16T07:15:47;-1.28;110.73
584;HTU21D;27024;54.068;12.116;2022-12-16T07:18:32;-1.32;110.46
584;HTU21D;27024;54.068;12.116;2022-12-16T07:21:17;-1.30;110.40
584;HTU21D;27024;54.068;12.116;2022-12-16T07:24:03;-1.41;110.87
584;HTU21D;27024;54.068;12.116;2022-12-16T07:26:48;-1.34;110.90
584;HTU21D;27024;54.068;12.116;2022-12-16T07:29:34;-1.33;110.98
584;HTU21D;27024;54.068;12.116;2022-12-16T07:32:19;-1.32;111.00
584;HTU21D;27024;54.068;12.116;2022-12-16T07:35:16;-1.43;111.13
584;HTU21D;27024;54.068;12.116;2022-12-16T07:38:17;-1.32;111.24
584;HTU21D;27024;54.068;12.116;2022-12-16T07:45:09;-1.32;111.00
584;HTU21D;27024;54.068;12.116;2022-12-16T07:47:55;-1.29;110.62
584;HTU21D;27024;54.068;12.116;2022-12-16T07:50:41;-1.28;110.37
584;HTU21D;27024;54.068;12.116;2022-12-16T07:53:26;-1.36;110.01
584;HTU21D;27024;54.068;12.116;2022-12-16T07:56:12;-1.36;110.70
584;HTU21D;27024;54.068;12.116;2022-12-16T07:58:57;-1.29;110.49
584;HTU21D;27024;54.068;12.116;2022-12-16T08:01:42;-1.31;110.28
584;HTU21D;27024;54.068;12.116;2022-12-16T08:04:28;-1.24;110.33
584;HTU21D;27024;54.068;12.116;2022-12-16T08:07:13;-1.27;110.29
584;HTU21D;27024;54.068;12.116;2022-12-16T08:09:58;-1.20;110.14
584;HTU21D;27024;54.068;12.116;2022-12-16T08:12:43;-1.15;109.76
584;HTU21D;27024;54.068;12.116;2022-12-16T08:15:29;-1.09;109.57
584;HTU21D;27024;54.068;12.116;2022-12-16T08:18:15;-1.04;109.50
584;HTU21D;27024;54.068;12.116;2022-12-16T08:21:00;-0.99;109.75
584;HTU21D;27024;54.068;12.116;2022-12-16T08:23:45;-0.88;109.39
584;HTU21D;27024;54.068;12.116;2022-12-16T08:26:30;-0.80;109.07
584;HTU21D;27024;54.068;12.116;2022-12-16T08:29:16;-0.75;108.86
584;HTU21D;27024;54.068;12.116;2022-12-16T08:32:12;-0.79;109.07
584;HTU21D;27024;54.068;12.116;2022-12-16T08:34:57;-0.89;109.62
584;HTU21D;27024;54.068;12.116;2022-12-16T08:37:42;-0.73;109.04
584;HTU21D;27024;54.068;12.116;2022-12-16T08:40:28;-0.69;109.33
584;HTU21D;27024;54.068;12.116;2022-12-16T08:43:14;-0.61;108.87
584;HTU21D;27024;54.068;12.116;2022-12-16T08:46:00;-0.66;108.90
584;HTU21D;27024;54.068;12.116;2022-12-16T08:48:46;-0.60;108.88
584;HTU21D;27024;54.068;12.116;2022-12-16T08:51:31;-0.53;108.42
584;HTU21D;27024;54.068;12.116;2022-12-16T08:54:16;-0.68;108.07
584;HTU21D;27024;54.068;12.116;2022-12-16T08:57:02;-0.62;107.96
584;HTU21D;27024;54.068;12.116;2022-12-16T08:59:47;-0.31;109.73
584;HTU21D;27024;54.068;12.116;2022-12-16T09:02:33;-0.57;107.68
584;HTU21D;27024;54.068;12.116;2022-12-16T09:05:21;-0.52;107.37
584;HTU21D;27024;54.068;12.116;2022-12-16T09:08:07;-0.39;106.76
584;HTU21D;27024;54.068;12.116;2022-12-16T09:10:52;-0.40;106.31
584;HTU21D;27024;54.068;12.116;2022-12-16T09:13:37;-0.34;106.24
584;HTU21D;27024;54.068;12.116;2022-12-16T09:16:23;0.58;109.67
584;HTU21D;27024;54.068;12.116;2022-12-16T09:19:09;-0.10;107.78
584;HTU21D;27024;54.068;12.116;2022-12-16T09:21:54;-0.23;107.43
584;HTU21D;27024;54.068;12.116;2022-12-16T09:24:39;-0.11;107.17
584;HTU21D;27024;54.068;12.116;2022-12-16T09:27:25;-0.25;105.50
584;HTU21D;27024;54.068;12.116;2022-12-16T09:30:10;-0.23;105.10
584;HTU21D;27024;54.068;12.116;2022-12-16T09:32:56;-0.14;104.86
584;HTU21D;27024;54.068;12.116;2022-12-16T09:35:42;-0.09;104.54
584;HTU21D;27024;54.068;12.116;2022-12-16T09:38:27;0.07;103.99
584;HTU21D;27024;54.068;12.116;2022-12-16T09:41:31;0.03;104.11
584;HTU21D;27024;54.068;12.116;2022-12-16T09:45:13;0.08;104.35
584;HTU21D;27024;54.068;12.116;2022-12-16T09:47:56;0.06;104.87
584;HTU21D;27024;54.068;12.116;2022-12-16T09:50:44;-0.07;104.88
584;HTU21D;27024;54.068;12.116;2022-12-16T09:53:33;0.14;105.09
584;HTU21D;27024;54.068;12.116;2022-12-16T09:56:24;0.15;103.48
584;HTU21D;27024;54.068;12.116;2022-12-16T09:59:19;0.19;103.45
584;HTU21D;27024;54.068;12.116;2022-12-16T10:02:14;0.13;103.54
584;HTU21D;27024;54.068;12.116;2022-12-16T10:05:02;0.30;103.19
584;HTU21D;27024;54.068;12.116;2022-12-16T10:07:56;0.14;103.67
584;HTU21D;27024;54.068;12.116;2022-12-16T10:13:39;0.33;102.49
584;HTU21D;27024;54.068;12.116;2022-12-16T10:16:57;0.36;101.73
584;HTU21D;27024;54.068;12.116;2022-12-16T10:25:44;0.38;102.21
584;HTU21D;27024;54.068;12.116;2022-12-16T10:28:59;0.45;102.20
584;HTU21D;27024;54.068;12.116;2022-12-16T10:31:48;0.52;101.35
584;HTU21D;27024;54.068;12.116;2022-12-16T10:34:35;0.54;100.45
584;HTU21D;27024;54.068;12.116;2022-12-16T10:37:41;0.50;100.36
584;HTU21D;27024;54.068;12.116;2022-12-16T10:40:31;0.63;100.22
584;HTU21D;27024;54.068;12.116;2022-12-16T10:43:42;0.69;99.85
584;HTU21D;27024;54.068;12.116;2022-12-16T10:46:32;0.80;99.48
584;HTU21D;27024;54.068;12.116;2022-12-16T10:49:19;0.81;99.53
584;HTU21D;27024;54.068;12.116;2022-12-16T10:52:05;0.80;99.44
584;HTU21D;27024;54.068;12.116;2022-12-16T10:55:03;0.84;98.69
584;HTU21D;27024;54.068;12.116;2022-12-16T11:01:20;1.04;97.24
584;HTU21D;27024;54.068;12.116;2022-12-16T11:04:32;1.01;97.54
584;HTU21D;27024;54.068;12.116;2022-12-16T11:13:18;1.05;97.07
584;HTU21D;27024;54.068;12.116;2022-12-16T11:16:11;1.12;96.55
584;HTU21D;27024;54.068;12.116;2022-12-16T11:18:57;1.42;95.29
584;HTU21D;27024;54.068;12.116;2022-12-16T11:21:43;1.54;93.22
584;HTU21D;27024;54.068;12.116;2022-12-16T11:24:29;1.47;93.43
584;HTU21D;27024;54.068;12.116;2022-12-16T11:27:25;1.41;93.61
584;HTU21D;27024;54.068;12.116;2022-12-16T11:30:21;1.49;93.27
584;HTU21D;27024;54.068;12.116;2022-12-16T11:33:19;1.60;91.92
584;HTU21D;27024;54.068;12.116;2022-12-16T11:36:12;1.82;90.35
584;HTU21D;27024;54.068;12.116;2022-12-16T11:38:59;1.87;89.35
584;HTU21D;27024;54.068;12.116;2022-12-16T11:41:48;1.96;88.79
584;HTU21D;27024;54.068;12.116;2022-12-16T11:44:53;2.07;89.11
584;HTU21D;27024;54.068;12.116;2022-12-16T11:47:49;2.08;88.10
584;HTU21D;27024;54.068;12.116;2022-12-16T11:50:40;2.09;88.25
584;HTU21D;27024;54.068;12.116;2022-12-16T11:53:55;1.98;87.82
584;HTU21D;27024;54.068;12.116;2022-12-16T11:56:42;1.91;88.32
584;HTU21D;27024;54.068;12.116;2022-12-16T11:59:37;2.02;87.64
584;HTU21D;27024;54.068;12.116;2022-12-16T12:02:33;1.97;88.05
584;HTU21D;27024;54.068;12.116;2022-12-16T12:05:35;1.93;88.57
584;HTU21D;27024;54.068;12.116;2022-12-16T12:11:34;1.75;91.26
584;HTU21D;27024;54.068;12.116;2022-12-16T12:17:50;1.56;91.60
584;HTU21D;27024;54.068;12.116;2022-12-16T12:21:08;1.46;92.61
584;HTU21D;27024;54.068;12.116;2022-12-16T12:30:19;1.50;94.98
584;HTU21D;27024;54.068;12.116;2022-12-16T12:36:44;1.35;95.55
584;HTU21D;27024;54.068;12.116;2022-12-16T12:42:39;1.31;94.94
584;HTU21D;27024;54.068;12.116;2022-12-16T12:45:44;1.36;95.36
584;HTU21D;27024;54.068;12.116;2022-12-16T12:48:41;1.24;95.59
584;HTU21D;27024;54.068;12.116;2022-12-16T12:58:07;1.33;95.59
584;HTU21D;27024;54.068;12.116;2022-12-16T13:00:55;1.38;95.62
584;HTU21D;27024;54.068;12.116;2022-12-16T13:03:46;1.43;95.09
584;HTU21D;27024;54.068;12.116;2022-12-16T13:06:35;1.52;94.89
584;HTU21D;27024;54.068;12.116;2022-12-16T13:09:35;1.38;95.58
584;HTU21D;27024;54.068;12.116;2022-12-16T13:12:24;1.39;95.41
584;HTU21D;27024;54.068;12.116;2022-12-16T13:15:37;1.54;94.04
584;HTU21D;27024;54.068;12.116;2022-12-16T13:18:27;1.47;94.56
584;HTU21D;27024;54.068;12.116;2022-12-16T13:27:12;1.39;94.65
584;HTU21D;27024;54.068;12.116;2022-12-16T13:32:55;1.25;94.72
584;HTU21D;27024;54.068;12.116;2022-12-16T13:35:56;1.24;96.46
584;HTU21D;27024;54.068;12.116;2022-12-16T13:38:47;1.20;96.60
584;HTU21D;27024;54.068;12.116;2022-12-16T13:50:44;0.84;98.42
584;HTU21D;27024;54.068;12.116;2022-12-16T13:53:33;0.80;98.97
584;HTU21D;27024;54.068;12.116;2022-12-16T13:56:35;0.67;99.83
584;HTU21D;27024;54.068;12.116;2022-12-16T13:59:24;0.62;100.22
584;HTU21D;27024;54.068;12.116;2022-12-16T14:02:32;0.57;99.67
584;HTU21D;27024;54.068;12.116;2022-12-16T14:05:28;0.45;100.56
584;HTU21D;27024;54.068;12.116;2022-12-16T14:08:16;0.51;100.84
584;HTU21D;27024;54.068;12.116;2022-12-16T14:11:10;0.51;100.61
584;HTU21D;27024;54.068;12.116;2022-12-16T14:14:04;0.40;101.56
584;HTU21D;27024;54.068;12.116;2022-12-16T14:16:58;0.32;102.18
584;HTU21D;27024;54.068;12.116;2022-12-16T14:20:25;0.19;103.03
584;HTU21D;27024;54.068;12.116;2022-12-16T14:26:18;0.03;104.13
584;HTU21D;27024;54.068;12.116;2022-12-16T14:29:22;-0.05;104.53
584;HTU21D;27024;54.068;12.116;2022-12-16T14:32:29;-0.17;105.47
584;HTU21D;27024;54.068;12.116;2022-12-16T14:35:24;-0.29;106.00
584;HTU21D;27024;54.068;12.116;2022-12-16T14:38:23;-0.35;105.82
584;HTU21D;27024;54.068;12.116;2022-12-16T14:41:19;-0.51;106.40
584;HTU21D;27024;54.068;12.116;2022-12-16T14:44:15;-0.59;106.68
584;HTU21D;27024;54.068;12.116;2022-12-16T14:47:21;-0.72;106.56
584;HTU21D;27024;54.068;12.116;2022-12-16T14:50:28;-0.84;106.21
584;HTU21D;27024;54.068;12.116;2022-12-16T14:53:22;-1.11;107.11
584;HTU21D;27024;54.068;12.116;2022-12-16T14:56:14;-1.26;107.53
584;HTU21D;27024;54.068;12.116;2022-12-16T14:59:07;-1.28;107.28
584;HTU21D;27024;54.068;12.116;2022-12-16T15:01:54;-1.42;107.46
584;HTU21D;27024;54.068;12.116;2022-12-16T15:04:42;-1.44;107.81
584;HTU21D;27024;54.068;12.116;2022-12-16T15:07:33;-1.50;108.23
584;HTU21D;27024;54.068;12.116;2022-12-16T15:10:23;-1.57;108.41
584;HTU21D;27024;54.068;12.116;2022-12-16T15:13:16;-1.74;108.27
584;HTU21D;27024;54.068;12.116;2022-12-16T15:16:03;-1.87;108.63
584;HTU21D;27024;54.068;12.116;2022-12-16T15:18:57;-2.04;108.36
584;HTU21D;27024;54.068;12.116;2022-12-16T15:21:44;-2.20;108.04
584;HTU21D;27024;54.068;12.116;2022-12-16T15:24:34;-2.24;107.50
584;HTU21D;27024;54.068;12.116;2022-12-16T15:30:45;-2.47;107.04
584;HTU21D;27024;54.068;12.116;2022-12-16T15:33:37;-2.43;106.46
584;HTU21D;27024;54.068;12.116;2022-12-16T15:36:27;-2.53;106.97
584;HTU21D;27024;54.068;12.116;2022-12-16T15:39:30;-2.60;107.13
584;HTU21D;27024;54.068;12.116;2022-12-16T15:45:29;-2.74;107.04
584;HTU21D;27024;54.068;12.116;2022-12-16T15:48:35;-2.87;107.79
584;HTU21D;27024;54.068;12.116;2022-12-16T15:51:31;-2.95;107.17
584;HTU21D;27024;54.068;12.116;2022-12-16T15:54:20;-3.06;107.21
584;HTU21D;27024;54.068;12.116;2022-12-16T15:57:38;-3.05;107.18
584;HTU21D;27024;54.068;12.116;2022-12-16T16:00:27;-3.15;107.10
584;HTU21D;27024;54.068;12.116;2022-12-16T16:06:02;-3.25;106.61
584;HTU21D;27024;54.068;12.116;2022-12-16T16:08:51;-3.41;105.75
584;HTU21D;27024;54.068;12.116;2022-12-16T16:11:36;-3.43;106.38
584;HTU21D;27024;54.068;12.116;2022-12-16T16:14:42;-3.58;105.59
584;HTU21D;27024;54.068;12.116;2022-12-16T16:17:28;-3.66;105.18
584;HTU21D;27024;54.068;12.116;2022-12-16T16:20:16;-3.76;105.11
584;HTU21D;27024;54.068;12.116;2022-12-16T16:23:03;-3.49;110.28
584;HTU21D;27024;54.068;12.116;2022-12-16T16:25:49;-3.82;107.69
584;HTU21D;27024;54.068;12.116;2022-12-16T16:28:35;-3.96;107.67
584;HTU21D;27024;54.068;12.116;2022-12-16T16:31:21;-4.02;107.06
584;HTU21D;27024;54.068;12.116;2022-12-16T16:34:09;-4.17;105.52
584;HTU21D;27024;54.068;12.116;2022-12-16T16:37:13;-4.43;104.50
584;HTU21D;27024;54.068;12.116;2022-12-16T16:40:00;-4.65;103.61
584;HTU21D;27024;54.068;12.116;2022-12-16T16:42:50;-4.80;103.40
584;HTU21D;27024;54.068;12.116;2022-12-16T16:45:37;-4.90;102.72
584;HTU21D;27024;54.068;12.116;2022-12-16T16:48:42;-4.93;102.09
584;HTU21D;27024;54.068;12.116;2022-12-16T16:51:27;-4.88;101.83
584;HTU21D;27024;54.068;12.116;2022-12-16T16:54:14;-4.85;101.63
584;HTU21D;27024;54.068;12.116;2022-12-16T16:57:02;-5.09;103.31
584;HTU21D;27024;54.068;12.116;2022-12-16T16:59:48;-4.93;106.35
584;HTU21D;27024;54.068;12.116;2022-12-16T17:02:33;-4.30;111.40
584;HTU21D;27024;54.068;12.116;2022-12-16T17:05:18;-5.09;107.49
584;HTU21D;27024;54.068;12.116;2022-12-16T17:08:04;-5.19;107.43
584;HTU21D;27024;54.068;12.116;2022-12-16T17:10:49;-5.25;107.59
584;HTU21D;27024;54.068;12.116;2022-12-16T17:13:34;-5.23;108.12
584;HTU21D;27024;54.068;12.116;2022-12-16T17:16:20;-5.28;108.32
584;HTU21D;27024;54.068;12.116;2022-12-16T17:19:05;-5.43;108.08
584;HTU21D;27024;54.068;12.116;2022-12-16T17:21:51;-5.56;108.10
584;HTU21D;27024;54.068;12.116;2022-12-16T17:24:38;-5.58;108.66
584;HTU21D;27024;54.068;12.116;2022-12-16T17:27:24;-5.59;108.07
584;HTU21D;27024;54.068;12.116;2022-12-16T17:30:19;-5.58;107.57
584;HTU21D;27024;54.068;12.116;2022-12-16T17:33:12;-5.63;107.14
584;HTU21D;27024;54.068;12.116;2022-12-16T17:35:59;-5.62;106.56
584;HTU21D;27024;54.068;12.116;2022-12-16T17:38:44;-5.60;105.87
584;HTU21D;27024;54.068;12.116;2022-12-16T17:41:31;-5.64;105.43
584;HTU21D;27024;54.068;12.116;2022-12-16T17:44:17;-5.62;105.22
584;HTU21D;27024;54.068;12.116;2022-12-16T17:47:03;-5.65;104.92
584;HTU21D;27024;54.068;12.116;2022-12-16T17:49:51;-5.62;104.88
584;HTU21D;27024;54.068;12.116;2022-12-16T17:52:36;-5.58;103.60
584;HTU21D;27024;54.068;12.116;2022-12-16T17:55:21;-5.65;103.64
584;HTU21D;27024;54.068;12.116;2022-12-16T17:58:07;-5.79;103.36
584;HTU21D;27024;54.068;12.116;2022-12-16T18:01:04;-5.82;103.31
584;HTU21D;27024;54.068;12.116;2022-12-16T18:03:50;-5.85;102.95
584;HTU21D;27024;54.068;12.116;2022-12-16T18:06:36;-5.73;103.12
584;HTU21D;27024;54.068;12.116;2022-12-16T18:09:21;-5.63;102.02
584;HTU21D;27024;54.068;12.116;2022-12-16T18:12:07;-5.74;101.19
584;HTU21D;27024;54.068;12.116;2022-12-16T18:14:52;-5.94;101.64
584;HTU21D;27024;54.068;12.116;2022-12-16T18:17:38;-6.04;101.89
584;HTU21D;27024;54.068;12.116;2022-12-16T18:20:23;-6.06;101.97
584;HTU21D;27024;54.068;12.116;2022-12-16T18:23:08;-6.05;101.79
584;HTU21D;27024;54.068;12.116;2022-12-16T18:26:02;-6.08;101.08
584;HTU21D;27024;54.068;12.116;2022-12-16T18:28:48;-6.09;100.33
584;HTU21D;27024;54.068;12.116;2022-12-16T18:31:34;-6.20;100.36
584;HTU21D;27024;54.068;12.116;2022-12-16T18:34:22;-6.20;99.96
584;HTU21D;27024;54.068;12.116;2022-12-16T18:37:10;-6.15;100.45
584;HTU21D;27024;54.068;12.116;2022-12-16T18:39:59;-5.98;100.17
584;HTU21D;27024;54.068;12.116;2022-12-16T18:42:45;-6.02;100.60
584;HTU21D;27024;54.068;12.116;2022-12-16T18:45:34;-6.21;101.89
584;HTU21D;27024;54.068;12.116;2022-12-16T18:48:28;-6.30;103.62
584;HTU21D;27024;54.068;12.116;2022-12-16T18:51:14;-6.21;103.02